createdAt,value
2022-08-19T00:01:06.827Z,20.34
2022-08-19T00:03:08.576Z,20.36
2022-08-19T00:05:11.644Z,20.32
2022-08-19T00:07:13.405Z,20.31
2022-08-19T00:09:17.858Z,20.35
2022-08-19T00:11:25.331Z,20.38
2022-08-19T00:13:29.697Z,20.38
2022-08-19T00:15:34.118Z,20.36
2022-08-19T00:17:35.790Z,20.33
2022-08-19T00:19:43.650Z,20.30
2022-08-19T00:21:45.398Z,20.29
2022-08-19T00:23:47.105Z,20.31
2022-08-19T00:25:48.953Z,20.30
2022-08-19T00:27:52.666Z,20.28
2022-08-19T00:29:54.356Z,20.26
2022-08-19T00:31:57.602Z,20.24
2022-08-19T00:33:59.470Z,20.26
2022-08-19T00:36:01.692Z,20.27
2022-08-19T00:38:07.454Z,20.26
2022-08-19T00:40:09.569Z,20.24
2022-08-19T00:42:15.811Z,20.25
2022-08-19T00:44:21.226Z,20.23
2022-08-19T00:46:29.836Z,20.22
2022-08-19T00:48:33.193Z,20.24
2022-08-19T00:50:35.045Z,20.21
2022-08-19T00:52:42.236Z,20.19
2022-08-19T00:54:44.764Z,20.21
2022-08-19T00:56:47.358Z,20.24
2022-08-19T00:58:49.148Z,20.26
2022-08-19T01:00:50.891Z,20.26
2022-08-19T01:02:53.607Z,20.26
2022-08-19T01:04:56.045Z,20.22
2022-08-19T01:06:58.488Z,20.16
2022-08-19T01:09:00.898Z,20.12
2022-08-19T01:11:03.830Z,20.12
2022-08-19T01:13:05.971Z,20.16
2022-08-19T01:15:11.036Z,20.14
2022-08-19T01:17:13.717Z,20.10
2022-08-19T01:19:29.314Z,20.10
2022-08-19T01:21:49.669Z,20.09
2022-08-19T01:23:51.801Z,20.08
2022-08-19T01:25:55.385Z,20.07
2022-08-19T01:27:59.080Z,20.07
2022-08-19T01:30:10.288Z,20.07
2022-08-19T01:32:32.401Z,20.07
2022-08-19T01:34:38.979Z,20.05
2022-08-19T01:36:48.234Z,20.01
2022-08-19T01:38:50.467Z,19.96
2022-08-19T01:40:52.950Z,19.94
2022-08-19T01:42:54.988Z,19.95
2022-08-19T01:44:57.147Z,19.94
2022-08-19T01:47:01.685Z,19.95
2022-08-19T01:49:05.431Z,19.94
2022-08-19T01:51:08.712Z,19.91
2022-08-19T01:53:12.106Z,19.86
2022-08-19T01:55:16.484Z,19.83
2022-08-19T01:57:18.192Z,19.81
2022-08-19T01:59:21.820Z,19.79
2022-08-19T02:01:23.806Z,19.76
2022-08-19T02:03:29.962Z,19.76
2022-08-19T02:05:31.834Z,19.76
2022-08-19T02:07:33.943Z,19.72
2022-08-19T02:09:36.507Z,19.67
2022-08-19T02:11:39.106Z,19.69
2022-08-19T02:13:40.788Z,19.72
2022-08-19T02:15:42.731Z,19.73
2022-08-19T02:17:44.442Z,19.72
2022-08-19T02:19:46.134Z,19.72
2022-08-19T02:21:47.826Z,19.73
2022-08-19T02:23:50.833Z,19.74
2022-08-19T02:25:53.062Z,19.72
2022-08-19T02:27:55.037Z,19.68
2022-08-19T02:29:56.634Z,19.62
2022-08-19T02:32:00.645Z,19.59
2022-08-19T02:34:03.564Z,19.57
2022-08-19T02:36:06.791Z,19.59
2022-08-19T02:38:26.583Z,19.52
2022-08-19T02:40:29.870Z,19.43
2022-08-19T02:42:32.416Z,19.35
2022-08-19T02:44:34.171Z,19.30
2022-08-19T02:46:36.782Z,19.26
2022-08-19T02:48:38.486Z,19.22
2022-08-19T02:50:41.044Z,19.22
2022-08-19T02:52:55.568Z,19.17
2022-08-19T02:55:01.130Z,19.13
2022-08-19T02:57:02.931Z,19.11
2022-08-19T02:59:12.117Z,19.14
2022-08-19T03:01:24.406Z,19.22
2022-08-19T03:03:26.166Z,19.28
2022-08-19T03:05:56.198Z,19.27
2022-08-19T03:07:50.672Z,19.21
2022-08-19T03:09:52.363Z,19.18
2022-08-19T03:11:54.048Z,19.14
2022-08-19T03:13:57.087Z,19.12
2022-08-19T03:15:58.798Z,19.08
2022-08-19T03:18:02.538Z,19.05
2022-08-19T03:20:08.919Z,19.04
2022-08-19T03:22:10.759Z,19.06
2022-08-19T03:24:13.274Z,19.03
2022-08-19T03:26:18.134Z,18.98
2022-08-19T03:28:20.395Z,18.96
2022-08-19T03:30:23.238Z,18.96
2022-08-19T03:32:32.802Z,19.00
2022-08-19T03:34:37.452Z,19.04
2022-08-19T03:36:39.232Z,19.01
2022-08-19T03:38:49.802Z,18.99
2022-08-19T03:40:59.425Z,19.02
2022-08-19T03:43:01.865Z,19.06
2022-08-19T03:45:04.236Z,19.12
2022-08-19T03:47:06.415Z,19.11
2022-08-19T03:49:11.181Z,19.04
2022-08-19T03:51:18.864Z,18.96
2022-08-19T04:00:49.742Z,18.65
2022-08-19T04:02:58.794Z,18.61
2022-08-19T04:05:02.701Z,18.59
2022-08-19T04:07:04.475Z,18.62
2022-08-19T04:09:09.664Z,18.67
2022-08-19T04:11:14.432Z,18.70
2022-08-19T04:13:18.399Z,18.75
2022-08-19T04:15:20.584Z,18.74
2022-08-19T04:17:23.505Z,18.74
2022-08-19T04:19:25.633Z,18.69
2022-08-19T04:21:28.091Z,18.55
2022-08-19T04:23:29.858Z,18.40
2022-08-19T04:25:37.595Z,18.28
2022-08-19T04:27:39.307Z,18.19
2022-08-19T04:29:41.367Z,18.15
2022-08-19T04:31:44.938Z,18.12
2022-08-19T04:33:46.623Z,18.05
2022-08-19T04:35:49.951Z,17.97
2022-08-19T04:37:51.639Z,17.92
2022-08-19T04:40:12.318Z,17.87
2022-08-19T04:42:34.479Z,17.83
2022-08-19T04:44:39.903Z,17.84
2022-08-19T04:46:51.386Z,17.82
2022-08-19T04:48:54.479Z,17.80
2022-08-19T04:51:00.533Z,17.80
2022-08-19T04:53:02.331Z,17.79
2022-08-19T04:55:07.572Z,17.83
2022-08-19T04:57:11.795Z,17.90
2022-08-19T04:59:13.853Z,17.97
2022-08-19T05:01:18.877Z,18.03
2022-08-19T05:03:21.460Z,18.09
2022-08-19T05:05:26.232Z,18.14
2022-08-19T05:07:28.430Z,18.18
2022-08-19T05:09:42.124Z,18.18
2022-08-19T05:11:53.843Z,18.18
2022-08-19T05:13:55.968Z,18.22
2022-08-19T05:15:58.794Z,18.30
2022-08-19T05:18:19.667Z,18.36
2022-08-19T05:20:41.515Z,18.36
2022-08-19T05:26:03.847Z,18.37
2022-08-19T05:28:07.891Z,18.43
2022-08-19T05:30:10.865Z,18.50
2022-08-19T05:32:12.592Z,18.54
2022-08-19T05:34:18.567Z,18.54
2022-08-19T05:36:24.455Z,18.51
2022-08-19T05:38:28.446Z,18.54
2022-08-19T05:40:30.324Z,18.54
2022-08-19T05:42:32.315Z,18.52
2022-08-19T05:44:34.715Z,18.54
2022-08-19T05:46:40.174Z,18.59
2022-08-19T05:48:41.844Z,18.67
2022-08-19T05:50:43.561Z,18.74
2022-08-19T05:52:50.667Z,18.65
2022-08-19T05:54:55.582Z,18.54
2022-08-19T05:56:57.625Z,18.42
2022-08-19T05:58:59.954Z,18.36
2022-08-19T06:01:05.560Z,18.41
2022-08-19T06:03:12.406Z,18.49
2022-08-19T06:05:15.108Z,18.54
2022-08-19T06:07:17.935Z,18.54
2022-08-19T06:09:23.229Z,18.56
2022-08-19T06:11:34.022Z,18.52
2022-08-19T06:13:35.665Z,18.48
2022-08-19T06:15:38.605Z,18.47
2022-08-19T06:17:40.572Z,18.47
2022-08-19T06:19:45.088Z,18.46
2022-08-19T06:21:48.992Z,18.45
2022-08-19T06:23:52.587Z,18.44
2022-08-19T06:25:54.297Z,18.41
2022-08-19T06:28:14.573Z,18.41
2022-08-19T06:30:17.270Z,18.45
2022-08-19T06:32:20.226Z,18.49
2022-08-19T06:34:22.374Z,18.51
2022-08-19T06:36:37.258Z,18.52
2022-08-19T06:38:38.958Z,18.55
2022-08-19T06:40:40.773Z,18.56
2022-08-19T06:42:47.600Z,18.53
2022-08-19T06:44:56.454Z,18.50
2022-08-19T06:46:58.843Z,18.49
2022-08-19T06:50:54.914Z,18.51
2022-08-19T06:52:56.708Z,18.42
2022-08-19T06:54:59.722Z,18.35
2022-08-19T06:57:04.938Z,18.35
2022-08-19T06:59:15.978Z,18.36
2022-08-19T07:01:17.737Z,18.37
2022-08-19T07:03:19.405Z,18.34
2022-08-19T07:05:24.446Z,18.32
2022-08-19T07:07:26.431Z,18.37
2022-08-19T07:09:28.387Z,18.38
2022-08-19T07:11:33.612Z,18.35
2022-08-19T07:13:37.946Z,18.31
2022-08-19T07:15:39.763Z,18.25
2022-08-19T07:17:42.224Z,18.23
2022-08-19T07:19:44.158Z,18.32
2022-08-19T07:21:50.517Z,18.45
2022-08-19T07:23:52.852Z,18.46
2022-08-19T07:25:54.567Z,18.45
2022-08-19T07:27:56.700Z,18.49
2022-08-19T07:29:59.770Z,18.54
2022-08-19T07:32:02.624Z,18.56
2022-08-19T07:34:09.039Z,18.63
2022-08-19T07:36:14.787Z,18.67
2022-08-19T07:38:17.362Z,18.73
2022-08-19T07:40:19.221Z,18.76
2022-08-19T07:42:22.202Z,18.76
2022-08-19T07:44:24.674Z,18.78
2022-08-19T07:46:27.889Z,18.85
2022-08-19T07:48:29.827Z,18.93
2022-08-19T07:50:31.462Z,18.98
2022-08-19T07:52:33.339Z,19.06
2022-08-19T08:00:55.136Z,19.31
2022-08-19T08:02:57.188Z,19.33
2022-08-19T08:05:17.512Z,19.40
2022-08-19T08:07:37.532Z,19.50
2022-08-19T08:09:41.063Z,19.52
2022-08-19T08:11:53.476Z,19.52
2022-08-19T08:14:01.210Z,19.57
2022-08-19T08:16:06.922Z,19.57
2022-08-19T08:18:12.707Z,19.62
2022-08-19T08:20:16.510Z,19.75
2022-08-19T08:22:39.752Z,19.84
2022-08-19T08:24:41.432Z,19.93
2022-08-19T08:26:46.738Z,19.99
2022-08-19T08:28:54.341Z,20.00
2022-08-19T08:30:56.758Z,19.99
2022-08-19T08:32:59.544Z,20.04
2022-08-19T08:35:01.575Z,20.14
2022-08-19T08:37:04.555Z,20.23
2022-08-19T08:39:06.502Z,20.26
2022-08-19T08:41:29.672Z,20.28
2022-08-19T08:43:37.919Z,20.37
2022-08-19T08:45:53.405Z,20.42
2022-08-19T08:47:58.630Z,20.50
2022-08-19T08:50:04.717Z,20.56
2022-08-19T08:52:09.520Z,20.53
2022-08-19T08:54:14.853Z,20.54
2022-08-19T08:56:18.909Z,20.54
2022-08-19T08:58:28.420Z,20.54
2022-08-19T09:00:42.336Z,20.50
2022-08-19T09:02:50.859Z,20.45
2022-08-19T09:04:57.184Z,20.56
2022-08-19T09:07:18.130Z,20.65
2022-08-19T09:09:44.636Z,20.72
2022-08-19T09:12:16.259Z,20.69
2022-08-19T09:14:47.360Z,20.66
2022-08-19T09:16:55.265Z,20.70
2022-08-19T09:19:53.248Z,20.71
2022-08-19T09:22:34.790Z,20.73
2022-08-19T09:24:41.431Z,20.67
2022-08-19T09:26:52.780Z,20.53
2022-08-19T09:28:56.593Z,20.42
2022-08-19T09:30:59.995Z,20.36
2022-08-19T09:33:19.834Z,20.31
2022-08-19T09:35:28.427Z,20.32
2022-08-19T09:37:34.742Z,20.35
2022-08-19T09:39:42.442Z,20.45
2022-08-19T09:41:47.286Z,20.59
2022-08-19T09:43:56.493Z,20.75
2022-08-19T09:45:58.464Z,20.91
2022-08-19T09:48:00.192Z,21.04
2022-08-19T09:50:04.658Z,21.13
2022-08-19T09:52:09.019Z,21.22
2022-08-19T09:54:15.687Z,21.29
2022-08-19T09:56:25.711Z,21.30
2022-08-19T09:58:28.835Z,21.34
2022-08-19T10:00:32.041Z,21.42
2022-08-19T10:02:34.258Z,21.61
2022-08-19T10:04:54.427Z,21.77
2022-08-19T10:06:57.532Z,21.78
2022-08-19T10:08:59.596Z,21.73
2022-08-19T10:11:28.114Z,21.76
2022-08-19T10:13:27.130Z,21.84
2022-08-19T10:15:29.537Z,22.04
2022-08-19T10:17:31.708Z,22.41
2022-08-19T10:19:37.129Z,22.77
2022-08-19T10:21:40.482Z,23.08
2022-08-19T10:23:46.191Z,23.20
2022-08-19T10:25:48.766Z,23.12
2022-08-19T10:27:51.193Z,23.05
2022-08-19T10:29:53.548Z,22.95
2022-08-19T10:32:02.516Z,22.78
2022-08-19T10:34:04.902Z,22.77
2022-08-19T10:36:10.917Z,22.80
2022-08-19T10:38:12.672Z,22.79
2022-08-19T10:40:14.514Z,22.69
2022-08-19T10:42:17.759Z,22.68
2022-08-19T10:44:20.601Z,22.84
2022-08-19T10:46:24.461Z,23.05
2022-08-19T10:48:27.137Z,23.39
2022-08-19T10:50:47.479Z,23.71
2022-08-19T10:52:50.917Z,23.93
2022-08-19T10:55:11.148Z,24.11
2022-08-19T10:57:12.910Z,24.11
2022-08-19T10:59:16.410Z,24.29
2022-08-19T11:01:18.157Z,24.57
2022-08-19T11:03:20.028Z,24.89
2022-08-19T11:05:24.429Z,25.04
2022-08-19T11:07:27.415Z,25.30
2022-08-19T11:09:33.876Z,25.61
2022-08-19T11:11:41.850Z,25.96
2022-08-19T11:13:45.536Z,26.24
2022-08-19T11:16:47.812Z,26.35
2022-08-19T11:18:53.907Z,26.47
2022-08-19T11:20:55.679Z,26.76
2022-08-19T11:22:57.419Z,27.07
2022-08-19T11:24:59.271Z,27.11
2022-08-19T11:27:06.969Z,27.11
2022-08-19T11:29:13.901Z,27.11
2022-08-19T11:31:19.015Z,27.04
2022-08-19T11:33:20.735Z,26.99
2022-08-19T11:35:24.477Z,27.07
2022-08-19T11:37:26.238Z,27.43
2022-08-19T11:39:30.197Z,27.74
2022-08-19T11:41:31.944Z,27.74
2022-08-19T11:43:37.450Z,27.75
2022-08-19T11:45:39.499Z,27.83
2022-08-19T11:47:43.527Z,27.85
2022-08-19T11:49:47.048Z,27.91
2022-08-19T11:51:51.177Z,28.06
2022-08-19T11:53:54.633Z,28.31
2022-08-19T11:55:56.880Z,28.30
2022-08-19T11:57:58.850Z,28.17
2022-08-19T12:00:00.606Z,28.20
2022-08-19T12:02:02.371Z,28.57
2022-08-19T12:04:06.178Z,28.77
2022-08-19T12:06:14.298Z,28.55
2022-08-19T12:08:19.051Z,28.66
2022-08-19T12:10:25.835Z,28.87
2022-08-19T12:12:29.032Z,29.18
2022-08-19T12:14:31.859Z,29.52
2022-08-19T12:16:33.872Z,29.79
2022-08-19T12:18:35.676Z,29.99
2022-08-19T12:20:39.450Z,30.11
2022-08-19T12:22:43.804Z,30.50
2022-08-19T12:24:45.462Z,30.73
2022-08-19T12:26:52.910Z,30.70
2022-08-19T12:28:56.115Z,30.49
2022-08-19T12:30:58.222Z,30.41
2022-08-19T12:33:00.125Z,30.28
2022-08-19T12:35:02.281Z,29.64
2022-08-19T12:37:06.107Z,29.28
2022-08-19T12:39:10.692Z,29.29
2022-08-19T12:41:18.489Z,28.99
2022-08-19T12:43:21.414Z,28.27
2022-08-19T12:45:23.732Z,27.52
2022-08-19T12:47:27.389Z,27.40
2022-08-19T12:49:52.370Z,27.33
2022-08-19T12:51:54.199Z,27.06
2022-08-19T12:53:55.911Z,27.24
2022-08-19T12:55:59.171Z,27.57
2022-08-19T12:58:02.497Z,28.07
2022-08-19T13:00:11.451Z,28.62
2022-08-19T13:02:13.146Z,28.95
2022-08-19T13:04:14.971Z,28.81
2022-08-19T13:06:19.508Z,28.93
2022-08-19T13:08:22.159Z,29.19
2022-08-19T13:10:35.863Z,29.66
2022-08-19T13:12:37.577Z,30.00
2022-08-19T13:14:41.271Z,29.89
2022-08-19T13:16:44.842Z,29.52
2022-08-19T13:18:48.413Z,29.43
2022-08-19T13:20:52.731Z,29.65
2022-08-19T13:22:55.350Z,30.02
2022-08-19T13:24:57.173Z,30.08
2022-08-19T13:27:02.070Z,29.99
2022-08-19T13:29:22.032Z,29.82
2022-08-19T13:31:43.532Z,29.49
2022-08-19T13:33:46.295Z,29.09
2022-08-19T13:35:52.819Z,28.69
2022-08-19T13:37:54.590Z,28.78
2022-08-19T13:39:56.485Z,28.92
2022-08-19T13:41:59.282Z,29.15
2022-08-19T13:44:01.091Z,29.59
2022-08-19T13:46:10.629Z,29.95
2022-08-19T13:48:12.328Z,30.05
2022-08-19T13:50:16.717Z,29.80
2022-08-19T13:52:18.459Z,29.06
2022-08-19T13:54:20.144Z,28.63
2022-08-19T13:56:26.002Z,28.17
2022-08-19T13:58:28.064Z,27.92
2022-08-19T14:00:33.119Z,27.77
2022-08-19T14:02:34.930Z,27.77
2022-08-19T14:04:38.450Z,27.87
2022-08-19T14:06:40.102Z,27.72
2022-08-19T14:08:46.017Z,27.12
2022-08-19T14:10:49.412Z,27.00
2022-08-19T14:12:56.400Z,27.31
2022-08-19T14:14:58.122Z,27.57
2022-08-19T14:17:01.321Z,27.78
2022-08-19T14:19:05.973Z,27.99
2022-08-19T14:21:08.211Z,28.57
2022-08-19T14:23:10.101Z,28.81
2022-08-19T14:25:19.416Z,28.54
2022-08-19T14:27:21.067Z,27.82
2022-08-19T14:29:22.893Z,27.10
2022-08-19T14:31:29.001Z,26.64
2022-08-19T14:33:33.585Z,26.25
2022-08-19T14:35:35.697Z,25.80
2022-08-19T14:37:45.402Z,25.44
2022-08-19T14:39:47.816Z,25.26
2022-08-19T14:41:49.802Z,25.47
2022-08-19T14:43:53.151Z,25.56
2022-08-19T14:45:54.952Z,25.83
2022-08-19T14:47:56.841Z,26.30
2022-08-19T14:49:58.543Z,26.44
2022-08-19T14:52:00.273Z,26.32
2022-08-19T14:54:02.113Z,25.99
2022-08-19T14:56:09.830Z,25.93
2022-08-19T14:58:29.823Z,26.48
2022-08-19T15:00:32.052Z,27.09
2022-08-19T15:02:35.510Z,27.48
2022-08-19T15:04:37.581Z,27.87
2022-08-19T15:06:39.635Z,28.31
2022-08-19T15:08:44.080Z,28.83
2022-08-19T15:10:48.687Z,29.41
2022-08-19T15:12:51.853Z,30.03
2022-08-19T15:14:56.754Z,30.15
2022-08-19T15:16:59.255Z,30.09
2022-08-19T15:19:01.232Z,30.16
2022-08-19T15:21:04.136Z,30.11
2022-08-19T15:23:06.669Z,30.22
2022-08-19T15:25:11.577Z,30.24
2022-08-19T15:27:14.452Z,30.51
2022-08-19T15:29:16.848Z,30.71
2022-08-19T15:31:25.565Z,31.05
2022-08-19T15:33:33.261Z,30.89
2022-08-19T15:35:35.012Z,30.34
2022-08-19T15:37:37.119Z,29.42
2022-08-19T15:39:39.507Z,28.53
2022-08-19T15:41:43.231Z,27.86
2022-08-19T15:43:48.235Z,27.55
2022-08-19T15:45:49.987Z,27.88
2022-08-19T15:47:51.728Z,28.42
2022-08-19T15:49:55.753Z,28.78
2022-08-19T15:52:01.651Z,29.18
2022-08-19T15:54:08.680Z,29.38
2022-08-19T15:56:11.417Z,29.68
2022-08-19T15:58:33.448Z,29.95
2022-08-19T16:00:53.779Z,30.29
2022-08-19T16:03:13.914Z,30.68
2022-08-19T16:05:40.400Z,31.30
2022-08-19T16:07:42.335Z,31.83
2022-08-19T16:09:44.018Z,32.04
2022-08-19T16:11:56.523Z,32.48
2022-08-19T16:13:59.652Z,32.83
2022-08-19T16:16:01.442Z,32.84
2022-08-19T16:18:04.256Z,32.83
2022-08-19T16:20:09.116Z,32.44
2022-08-19T16:22:10.938Z,32.25
2022-08-19T16:24:15.027Z,32.17
2022-08-19T16:26:19.543Z,32.26
2022-08-19T16:28:22.917Z,32.39
2022-08-19T16:30:24.859Z,32.45
2022-08-19T16:32:26.902Z,32.14
2022-08-19T16:34:28.558Z,31.19
2022-08-19T16:36:31.276Z,30.41
2022-08-19T16:38:34.192Z,30.17
2022-08-19T16:40:36.054Z,30.16
2022-08-19T16:42:37.760Z,30.31
2022-08-19T16:44:45.194Z,30.44
2022-08-19T16:46:58.385Z,30.60
2022-08-19T16:49:00.823Z,30.88
2022-08-19T16:51:09.369Z,31.23
2022-08-19T16:53:11.011Z,31.46
2022-08-19T16:55:12.740Z,31.47
2022-08-19T16:57:14.807Z,31.04
2022-08-19T16:59:16.962Z,30.40
2022-08-19T17:01:18.960Z,29.72
2022-08-19T17:03:27.881Z,29.45
2022-08-19T17:05:48.168Z,29.68
2022-08-19T17:07:49.820Z,29.80
2022-08-19T17:09:52.446Z,29.78
2022-08-19T17:11:54.117Z,29.74
2022-08-19T17:13:59.024Z,29.33
2022-08-19T17:16:00.808Z,28.60
2022-08-19T17:18:04.344Z,27.87
2022-08-19T17:20:07.587Z,27.27
2022-08-19T17:22:11.502Z,26.83
2022-08-19T17:24:13.272Z,26.54
2022-08-19T17:26:18.380Z,26.45
2022-08-19T17:28:27.414Z,26.70
2022-08-19T17:30:29.095Z,27.11
2022-08-19T17:32:34.995Z,27.29
2022-08-19T17:34:37.116Z,27.16
2022-08-19T17:36:38.801Z,26.82
2022-08-19T17:38:40.490Z,26.31
2022-08-19T17:40:44.346Z,25.76
2022-08-19T17:42:46.203Z,25.18
2022-08-19T17:44:50.908Z,24.73
2022-08-19T17:46:53.638Z,24.35
2022-08-19T17:48:57.337Z,24.08
2022-08-19T17:51:00.450Z,23.79
2022-08-19T17:53:03.022Z,23.59
2022-08-19T17:55:06.903Z,23.51
2022-08-19T17:57:09.618Z,23.51
2022-08-19T17:59:14.073Z,23.66
2022-08-19T18:01:16.209Z,23.68
2022-08-19T18:03:21.690Z,23.69
2022-08-19T18:05:29.611Z,23.69
2022-08-19T18:07:32.387Z,23.88
2022-08-19T18:09:41.650Z,24.06
2022-08-19T18:11:44.878Z,24.08
2022-08-19T18:13:54.506Z,23.92
2022-08-19T18:15:57.974Z,23.64
2022-08-19T18:17:59.642Z,23.25
2022-08-19T18:20:01.191Z,22.87
2022-08-19T18:22:03.585Z,22.58
2022-08-19T18:24:05.986Z,22.40
2022-08-19T18:26:08.136Z,22.29
2022-08-19T18:28:09.878Z,22.14
2022-08-19T18:30:12.183Z,21.94
2022-08-19T18:32:13.851Z,21.77
2022-08-19T18:34:15.543Z,21.64
2022-08-19T18:36:27.896Z,21.51
2022-08-19T18:39:07.924Z,21.40
2022-08-19T18:41:28.556Z,21.32
2022-08-19T18:43:48.639Z,21.23
2022-08-19T18:46:09.915Z,21.22
2022-08-19T18:48:30.361Z,21.22
2022-08-19T18:50:32.675Z,21.06
2022-08-19T18:52:35.385Z,20.90
2022-08-19T18:54:37.224Z,20.77
2022-08-19T18:56:43.646Z,20.61
2022-08-19T18:58:46.246Z,20.52
2022-08-19T19:00:48.255Z,20.39
2022-08-19T19:02:50.153Z,20.27
2022-08-19T19:04:51.838Z,20.14
2022-08-19T19:06:53.692Z,20.04
2022-08-19T19:08:55.390Z,19.94
2022-08-19T19:10:57.111Z,19.84
2022-08-19T19:13:00.109Z,19.73
2022-08-19T19:15:03.836Z,19.59
2022-08-19T19:17:08.397Z,19.50
2022-08-19T19:19:14.993Z,19.41
2022-08-19T19:21:23.562Z,19.34
2022-08-19T19:23:25.434Z,19.24
2022-08-19T19:25:27.600Z,19.13
2022-08-19T19:27:50.144Z,19.06
2022-08-19T19:29:52.748Z,19.05
2022-08-19T19:31:58.459Z,19.00
2022-08-19T19:34:00.522Z,18.96
2022-08-19T19:36:02.352Z,18.90
2022-08-19T19:38:04.071Z,18.82
2022-08-19T19:40:06.500Z,18.75
2022-08-19T19:42:12.507Z,18.66
2022-08-19T19:44:30.923Z,18.56
2022-08-19T19:46:34.391Z,18.48
2022-08-19T19:48:36.094Z,18.43
2022-08-19T19:50:39.035Z,18.39
2022-08-19T19:52:41.476Z,18.33
2022-08-19T19:54:47.854Z,18.26
2022-08-19T19:56:50.523Z,18.17
2022-08-19T19:58:53.572Z,18.07
2022-08-19T20:00:58.100Z,18.02
2022-08-19T20:03:00.011Z,17.97
2022-08-19T20:05:01.663Z,17.92
2022-08-19T20:07:03.358Z,17.87
2022-08-19T20:09:10.333Z,17.84
2022-08-19T20:11:12.026Z,17.81
2022-08-19T20:13:15.667Z,17.76
2022-08-19T20:16:18.999Z,17.71
2022-08-19T20:18:26.488Z,17.66
2022-08-19T20:20:28.471Z,17.57
2022-08-19T20:22:33.856Z,17.51
2022-08-19T20:24:36.342Z,17.45
2022-08-19T20:26:38.109Z,17.42
2022-08-19T20:28:43.433Z,17.40
2022-08-19T20:30:51.266Z,17.38
2022-08-19T20:32:55.377Z,17.39
2022-08-19T20:34:58.989Z,17.37
2022-08-19T20:37:00.709Z,17.35
2022-08-19T20:39:04.721Z,17.33
2022-08-19T20:41:10.620Z,17.29
2022-08-19T20:43:13.830Z,17.27
2022-08-19T20:45:31.958Z,17.24
2022-08-19T20:47:36.185Z,17.20
2022-08-19T20:49:37.840Z,17.19
2022-08-19T20:51:39.545Z,17.19
2022-08-19T20:53:41.985Z,17.17
2022-08-19T20:55:45.540Z,17.19
2022-08-19T20:57:47.574Z,17.21
2022-08-19T20:59:49.408Z,17.22
2022-08-19T21:01:53.918Z,17.23
2022-08-19T21:03:55.581Z,17.23
2022-08-19T21:05:57.992Z,17.24
2022-08-19T21:07:59.649Z,17.24
2022-08-19T21:10:01.449Z,17.24
2022-08-19T21:12:06.117Z,17.25
2022-08-19T21:14:08.077Z,17.30
2022-08-19T21:16:09.847Z,17.38
2022-08-19T21:18:13.208Z,17.40
2022-08-19T21:20:15.311Z,17.42
2022-08-19T21:22:17.035Z,17.43
2022-08-19T21:24:18.727Z,17.46
2022-08-19T21:26:23.054Z,17.46
2022-08-19T21:28:35.160Z,17.47
2022-08-19T21:30:38.939Z,17.52
2022-08-19T21:32:41.431Z,17.55
2022-08-19T21:34:46.468Z,17.56
2022-08-19T21:36:48.335Z,17.59
2022-08-19T21:38:50.005Z,17.62
2022-08-19T21:40:51.758Z,17.62
2022-08-19T21:42:53.496Z,17.57
2022-08-19T21:44:55.147Z,17.52
2022-08-19T21:46:56.943Z,17.50
2022-08-19T21:48:58.737Z,17.48
2022-08-19T21:51:00.424Z,17.45
2022-08-19T21:53:04.656Z,17.41
2022-08-19T21:55:08.007Z,17.33
2022-08-19T21:57:10.374Z,17.23
2022-08-19T21:59:12.657Z,17.15
2022-08-19T22:01:14.411Z,17.08
2022-08-19T22:03:22.135Z,17.05
2022-08-19T22:05:25.041Z,17.03
2022-08-19T22:07:26.737Z,16.95
2022-08-19T22:09:28.467Z,16.85
2022-08-19T22:11:30.323Z,16.71
2022-08-19T22:13:40.373Z,16.57
2022-08-19T22:15:42.517Z,16.42
2022-08-19T22:17:44.810Z,16.27
2022-08-19T22:19:46.807Z,16.14
2022-08-19T22:21:48.348Z,16.07
2022-08-19T22:23:50.086Z,16.09
2022-08-19T22:25:51.843Z,16.10
2022-08-19T22:27:56.903Z,15.98
2022-08-19T22:30:04.727Z,15.80
2022-08-19T22:32:23.029Z,15.66
2022-08-19T22:34:28.881Z,15.49
2022-08-19T22:36:32.210Z,15.36
2022-08-19T22:38:38.339Z,15.26
2022-08-19T22:40:47.478Z,15.14
2022-08-19T22:42:49.277Z,15.05
2022-08-19T22:44:51.557Z,15.02
2022-08-19T22:46:53.347Z,15.02
2022-08-19T22:49:01.501Z,15.01
2022-08-19T22:51:41.701Z,15.00
2022-08-19T22:53:46.598Z,14.91
2022-08-19T22:55:48.492Z,14.83
2022-08-19T22:57:50.314Z,14.74
2022-08-19T22:59:53.361Z,14.63
2022-08-19T23:01:56.546Z,14.47
2022-08-19T23:03:59.718Z,14.35
2022-08-19T23:06:01.516Z,14.25
2022-08-19T23:08:03.673Z,14.21
2022-08-19T23:10:06.622Z,14.28
2022-08-19T23:12:08.703Z,14.33
2022-08-19T23:14:11.265Z,14.26
2022-08-19T23:16:13.171Z,14.15
2022-08-19T23:18:16.799Z,14.04
2022-08-19T23:20:18.725Z,13.97
2022-08-19T23:25:47.519Z,13.84
2022-08-19T23:28:08.499Z,13.83
2022-08-19T23:30:26.596Z,13.87
2022-08-19T23:32:28.261Z,13.89
2022-08-19T23:34:30.258Z,13.90
2022-08-19T23:36:31.969Z,13.93
2022-08-19T23:42:11.652Z,13.96
2022-08-19T23:44:14.846Z,13.95
2022-08-19T23:46:28.108Z,13.97
2022-08-19T23:48:35.291Z,14.05
2022-08-19T23:50:38.758Z,14.11
2022-08-19T23:52:50.494Z,14.18
2022-08-19T23:54:52.163Z,14.27
2022-08-19T23:56:53.813Z,14.36
2022-08-19T23:58:55.603Z,14.38
